createdAt,value
2018-12-06T00:00:41.148Z,7.9
2018-12-06T00:01:42.552Z,7.9
2018-12-06T00:02:44.091Z,7.9
2018-12-06T00:03:45.666Z,7.8
2018-12-06T00:04:47.057Z,7.9
2018-12-06T00:05:48.683Z,7.9
2018-12-06T00:06:50.212Z,7.3
2018-12-06T00:07:51.589Z,7.4
2018-12-06T00:08:52.968Z,7.6
2018-12-06T00:09:54.887Z,7.8
2018-12-06T00:10:56.420Z,7.9
2018-12-06T00:11:57.629Z,7.9
2018-12-06T00:12:59.163Z,7.9
2018-12-06T00:14:00.726Z,7.9
2018-12-06T00:15:02.246Z,7.9
2018-12-06T00:16:03.779Z,7.2
2018-12-06T00:17:05.182Z,7.4
2018-12-06T00:18:06.708Z,7.5
2018-12-06T00:19:08.341Z,7.6
2018-12-06T00:20:09.720Z,7.7
2018-12-06T00:21:11.096Z,7.8
2018-12-06T00:22:12.623Z,7.9
2018-12-06T00:23:14.161Z,7.9
2018-12-06T00:24:15.755Z,7.9
2018-12-06T00:25:17.146Z,7.2
2018-12-06T00:26:18.522Z,7.3
2018-12-06T00:27:19.746Z,7.4
2018-12-06T00:28:21.286Z,7.4
2018-12-06T00:29:22.678Z,7.5
2018-12-06T00:30:23.992Z,7.6
2018-12-06T00:31:25.380Z,7.6
2018-12-06T00:32:26.742Z,7.7
2018-12-06T00:33:28.270Z,7.8
2018-12-06T00:34:29.812Z,7.8
2018-12-06T00:35:31.203Z,7.8
2018-12-06T00:36:32.729Z,7.8
2018-12-06T00:37:34.261Z,7.8
2018-12-06T00:38:35.649Z,7.9
2018-12-06T00:39:37.188Z,7.9
2018-12-06T00:40:38.560Z,7.9
2018-12-06T00:41:40.103Z,7.9
2018-12-06T00:42:41.657Z,7.9
2018-12-06T00:43:43.042Z,7.8
2018-12-06T00:44:44.602Z,7.8
2018-12-06T00:45:46.192Z,7.8
2018-12-06T00:46:47.600Z,7.8
2018-12-06T00:47:49.144Z,7.8
2018-12-06T00:48:50.547Z,7.8
2018-12-06T00:49:52.104Z,7.8
2018-12-06T00:50:53.633Z,7.8
2018-12-06T00:51:55.033Z,7.8
2018-12-06T00:52:56.572Z,7.8
2018-12-06T00:53:58.099Z,7.8
2018-12-06T00:54:59.636Z,7.7
2018-12-06T00:56:01.171Z,7.7
2018-12-06T00:57:02.552Z,7.7
2018-12-06T00:58:03.929Z,7.7
2018-12-06T00:59:05.466Z,7.6
2018-12-06T01:00:07.054Z,7.6
2018-12-06T01:01:08.441Z,7.6
2018-12-06T01:02:09.819Z,7.6
2018-12-06T01:03:11.373Z,7.5
2018-12-06T01:04:13.031Z,7.5
2018-12-06T01:05:14.574Z,7.5
2018-12-06T01:06:16.110Z,7.5
2018-12-06T01:07:17.658Z,7.4
2018-12-06T01:08:18.887Z,7.4
2018-12-06T01:09:20.265Z,7.4
2018-12-06T01:10:21.651Z,7.4
2018-12-06T01:11:23.188Z,7.3
2018-12-06T01:12:24.733Z,7.3
2018-12-06T01:13:25.960Z,7.3
2018-12-06T01:14:27.498Z,7.4
2018-12-06T01:15:29.038Z,7.4
2018-12-06T01:16:30.442Z,7.4
2018-12-06T01:17:31.847Z,7.4
2018-12-06T01:18:33.465Z,7.3
2018-12-06T01:19:34.681Z,7.3
2018-12-06T01:20:36.068Z,7.3
2018-12-06T01:21:37.275Z,7.3
2018-12-06T01:22:38.819Z,7.2
2018-12-06T01:23:40.229Z,7.2
2018-12-06T01:24:41.611Z,7.2
2018-12-06T01:25:42.844Z,7.3
2018-12-06T01:26:44.397Z,7.3
2018-12-06T01:27:45.933Z,7.2
2018-12-06T01:28:47.472Z,7.3
2018-12-06T01:29:48.853Z,7.2
2018-12-06T01:30:50.395Z,7.2
2018-12-06T01:31:51.931Z,7.2
2018-12-06T01:32:53.501Z,7.2
2018-12-06T01:33:54.886Z,7.2
2018-12-06T01:34:56.334Z,7.2
2018-12-06T01:35:57.861Z,7.2
2018-12-06T01:36:59.390Z,7.2
2018-12-06T01:38:00.777Z,7.2
2018-12-06T01:39:02.187Z,7.3
2018-12-06T01:40:03.553Z,7.3
2018-12-06T01:41:05.010Z,7.3
2018-12-06T01:42:06.394Z,7.3
2018-12-06T01:43:07.772Z,7.3
2018-12-06T01:44:09.354Z,7.3
2018-12-06T01:45:10.438Z,7.3
2018-12-06T01:46:11.839Z,7.3
2018-12-06T01:47:13.261Z,7.3
2018-12-06T01:48:14.829Z,7.3
2018-12-06T01:49:16.217Z,7.3
2018-12-06T01:50:17.761Z,7.3
2018-12-06T01:51:19.168Z,7.3
2018-12-06T01:52:20.549Z,7.3
2018-12-06T01:53:22.099Z,7.4
2018-12-06T01:54:23.638Z,7.4
2018-12-06T01:55:25.157Z,7.4
2018-12-06T01:56:26.558Z,7.5
2018-12-06T01:57:27.931Z,7.5
2018-12-06T01:58:29.009Z,7.5
2018-12-06T01:59:30.395Z,7.6
2018-12-06T02:00:31.928Z,7.6
2018-12-06T02:01:33.319Z,7.6
2018-12-06T02:02:34.697Z,7.6
2018-12-06T02:03:36.067Z,7.6
2018-12-06T02:04:37.379Z,7.6
2018-12-06T02:05:38.583Z,7.7
2018-12-06T02:06:40.109Z,7.6
2018-12-06T02:07:41.658Z,7.6
2018-12-06T02:08:43.239Z,7.6
2018-12-06T02:09:44.304Z,7.6
2018-12-06T02:10:45.702Z,7.5
2018-12-06T02:11:46.929Z,7.5
2018-12-06T02:12:48.467Z,7.4
2018-12-06T02:13:50.008Z,7.3
2018-12-06T02:14:51.396Z,7.2
2018-12-06T02:15:52.784Z,7.2
2018-12-06T02:16:54.167Z,7.2
2018-12-06T02:17:55.540Z,7.2
2018-12-06T02:18:57.061Z,7.2
2018-12-06T02:19:58.619Z,7.2
2018-12-06T02:21:00.159Z,7.2
2018-12-06T02:22:01.706Z,7.1
2018-12-06T02:23:03.263Z,7.2
2018-12-06T02:24:04.799Z,7.1
2018-12-06T02:25:06.171Z,7.1
2018-12-06T02:26:07.735Z,7.1
2018-12-06T02:27:09.117Z,7.1
2018-12-06T02:28:10.447Z,7.1
2018-12-06T02:29:11.831Z,7.1
2018-12-06T02:30:13.237Z,7.1
2018-12-06T02:31:14.466Z,7.1
2018-12-06T02:32:16.020Z,7.1
2018-12-06T02:33:17.504Z,7.1
2018-12-06T02:34:19.068Z,7.1
2018-12-06T02:35:20.662Z,7.1
2018-12-06T02:36:22.077Z,7.1
2018-12-06T02:37:23.449Z,7.1
2018-12-06T02:38:25.012Z,7.1
2018-12-06T02:39:26.591Z,7.1
2018-12-06T02:40:28.138Z,7.1
2018-12-06T02:41:29.725Z,7.1
2018-12-06T02:42:31.369Z,7.1
2018-12-06T02:43:32.953Z,7.2
2018-12-06T02:44:34.349Z,7.1
2018-12-06T02:45:35.928Z,7.1
2018-12-06T02:46:37.479Z,7.1
2018-12-06T02:47:39.116Z,7.1
2018-12-06T02:48:40.676Z,7.1
2018-12-06T02:49:42.303Z,7.2
2018-12-06T02:50:43.862Z,7.2
2018-12-06T02:51:45.277Z,7.2
2018-12-06T02:52:46.695Z,7.2
2018-12-06T02:53:48.084Z,7.2
2018-12-06T02:54:49.457Z,7.2
2018-12-06T02:55:50.862Z,7.2
2018-12-06T02:56:52.102Z,7.2
2018-12-06T02:57:53.479Z,7.2
2018-12-06T02:58:54.867Z,7.2
2018-12-06T02:59:56.412Z,7.2
2018-12-06T03:00:57.994Z,7.2
2018-12-06T03:01:59.529Z,7.2
2018-12-06T03:03:01.117Z,7.2
2018-12-06T03:04:02.680Z,7.2
2018-12-06T03:05:04.087Z,7.3
2018-12-06T03:06:05.627Z,7.3
2018-12-06T03:07:07.177Z,7.3
2018-12-06T03:08:08.757Z,7.3
2018-12-06T03:09:10.205Z,7.3
2018-12-06T03:10:11.754Z,7.4
2018-12-06T03:11:13.287Z,7.4
2018-12-06T03:12:14.704Z,7.5
2018-12-06T03:13:16.259Z,7.5
2018-12-06T03:14:17.666Z,7.6
2018-12-06T03:15:19.210Z,7.6
2018-12-06T03:16:20.767Z,7.6
2018-12-06T03:17:22.194Z,7.6
2018-12-06T03:18:23.745Z,7.7
2018-12-06T03:19:25.354Z,7.7
2018-12-06T03:20:26.914Z,7.7
2018-12-06T03:21:28.323Z,7.8
2018-12-06T03:22:29.568Z,7.8
2018-12-06T03:23:30.963Z,7.8
2018-12-06T03:24:32.530Z,7.8
2018-12-06T03:25:33.929Z,7.8
2018-12-06T03:26:35.484Z,7.9
2018-12-06T03:27:37.016Z,7.9
2018-12-06T03:28:38.397Z,7.8
2018-12-06T03:29:39.948Z,7.8
2018-12-06T03:30:41.532Z,7.8
2018-12-06T03:31:42.959Z,7.8
2018-12-06T03:32:44.535Z,7.8
2018-12-06T03:33:45.959Z,7.8
2018-12-06T03:34:47.367Z,7.8
2018-12-06T03:35:48.927Z,7.8
2018-12-06T03:36:50.481Z,7.8
2018-12-06T03:37:52.017Z,7.8
2018-12-06T03:38:53.582Z,7.9
2018-12-06T03:39:55.202Z,7.9
2018-12-06T03:40:56.591Z,7.9
2018-12-06T03:41:58.150Z,7.9
2018-12-06T03:42:59.565Z,7.8
2018-12-06T03:44:01.111Z,7.8
2018-12-06T03:45:02.730Z,7.8
2018-12-06T03:46:04.148Z,7.8
2018-12-06T03:47:05.678Z,7.8
2018-12-06T03:48:07.055Z,7.7
2018-12-06T03:49:08.448Z,7.8
2018-12-06T03:50:09.842Z,7.8
2018-12-06T03:51:11.220Z,7.8
2018-12-06T03:52:12.789Z,7.8
2018-12-06T03:53:14.330Z,7.8
2018-12-06T03:54:15.883Z,7.9
2018-12-06T03:55:17.264Z,7.9
2018-12-06T03:56:18.661Z,7.9
2018-12-06T03:57:19.714Z,7.9
2018-12-06T03:58:21.251Z,7.9
2018-12-06T03:59:22.788Z,7.9
2018-12-06T04:00:24.322Z,7.8
2018-12-06T04:01:25.849Z,7.8
2018-12-06T04:02:27.392Z,7.8
2018-12-06T04:03:28.944Z,7.8
2018-12-06T04:04:30.468Z,7.8
2018-12-06T04:05:32.039Z,7.9
2018-12-06T04:06:33.445Z,7.9
2018-12-06T04:07:34.989Z,7.9
2018-12-06T04:08:36.365Z,7.9
2018-12-06T04:09:37.749Z,7.9
2018-12-06T04:10:39.320Z,7.9
2018-12-06T04:11:40.887Z,7.9
2018-12-06T04:12:42.119Z,7.9
2018-12-06T04:13:43.697Z,7.8
2018-12-06T04:14:45.103Z,7.8
2018-12-06T04:15:46.638Z,7.7
2018-12-06T04:16:48.184Z,7.5
2018-12-06T04:17:49.550Z,7.4
2018-12-06T04:18:50.976Z,7.2
2018-12-06T04:19:52.530Z,7.2
2018-12-06T04:20:54.204Z,7.2
2018-12-06T04:21:55.751Z,7.1
2018-12-06T04:22:56.988Z,7.1
2018-12-06T04:23:58.372Z,7.1
2018-12-06T04:24:59.783Z,7.1
2018-12-06T04:26:01.179Z,7.2
2018-12-06T04:27:02.745Z,7.1
2018-12-06T04:28:04.293Z,7.1
2018-12-06T04:29:05.857Z,7.2
2018-12-06T04:30:07.249Z,7.2
2018-12-06T04:31:08.781Z,7.2
2018-12-06T04:32:10.165Z,7.2
2018-12-06T04:33:11.707Z,7.2
2018-12-06T04:34:13.248Z,7.2
2018-12-06T04:35:14.798Z,7.2
2018-12-06T04:36:16.235Z,7.2
2018-12-06T04:37:17.779Z,7.2
2018-12-06T04:38:19.159Z,7.2
2018-12-06T04:39:20.560Z,7.2
2018-12-06T04:40:22.123Z,7.2
2018-12-06T04:41:23.769Z,7.2
2018-12-06T04:42:25.157Z,7.2
2018-12-06T04:43:26.543Z,7.2
2018-12-06T04:44:28.075Z,7.2
2018-12-06T04:45:29.475Z,7.3
2018-12-06T04:46:30.863Z,7.3
2018-12-06T04:47:32.458Z,7.4
2018-12-06T04:48:34.072Z,7.5
2018-12-06T04:49:35.481Z,7.5
2018-12-06T04:50:36.879Z,7.6
2018-12-06T04:51:38.457Z,7.7
2018-12-06T04:52:39.874Z,7.8
2018-12-06T04:53:41.317Z,7.9
2018-12-06T04:54:42.920Z,7.9
2018-12-06T04:55:44.593Z,7.9
2018-12-06T04:56:45.837Z,7.9
2018-12-06T04:57:47.392Z,7.9
2018-12-06T04:58:48.643Z,7.6
2018-12-06T04:59:50.252Z,7.8
2018-12-06T05:00:51.509Z,7.9
2018-12-06T05:01:53.039Z,7.9
2018-12-06T05:02:54.449Z,7.8
2018-12-06T05:03:55.838Z,7.9
2018-12-06T05:04:57.237Z,7.9
2018-12-06T05:05:58.464Z,7.9
2018-12-06T05:07:00.062Z,7.9
2018-12-06T05:08:01.603Z,7.9
2018-12-06T05:09:03.174Z,7.9
2018-12-06T05:10:04.409Z,7.9
2018-12-06T05:11:05.642Z,7.9
2018-12-06T05:12:07.191Z,7.9
2018-12-06T05:13:08.575Z,7.9
2018-12-06T05:14:10.046Z,7.9
2018-12-06T05:15:11.423Z,7.9
2018-12-06T05:16:12.959Z,7.9
2018-12-06T05:17:14.150Z,7.9
2018-12-06T05:18:15.377Z,7.2
2018-12-06T05:19:16.909Z,7.3
2018-12-06T05:20:18.436Z,7.4
2018-12-06T05:21:19.985Z,7.4
2018-12-06T05:22:21.348Z,7.5
2018-12-06T05:23:22.889Z,7.5
2018-12-06T05:24:24.433Z,7.5
2018-12-06T05:25:25.815Z,7.5
2018-12-06T05:26:27.217Z,7.6
2018-12-06T05:27:28.440Z,7.6
2018-12-06T05:28:29.967Z,7.6
2018-12-06T05:29:31.502Z,7.6
2018-12-06T05:30:33.073Z,7.6
2018-12-06T05:31:34.621Z,7.6
2018-12-06T05:32:36.149Z,7.6
2018-12-06T05:33:37.532Z,7.6
2018-12-06T05:34:39.093Z,7.6
2018-12-06T05:35:40.635Z,7.6
2018-12-06T05:36:42.040Z,7.6
2018-12-06T05:37:43.567Z,7.5
2018-12-06T05:38:44.962Z,7.5
2018-12-06T05:39:46.348Z,7.5
2018-12-06T05:40:47.874Z,7.5
2018-12-06T05:41:49.104Z,7.5
2018-12-06T05:42:50.480Z,7.5
2018-12-06T05:43:51.870Z,7.5
2018-12-06T05:44:53.406Z,7.5
2018-12-06T05:45:54.950Z,7.5
2018-12-06T05:46:56.486Z,7.5
2018-12-06T05:47:57.863Z,7.5
2018-12-06T05:48:59.402Z,7.5
2018-12-06T05:50:00.942Z,7.5
2018-12-06T05:51:02.479Z,7.5
2018-12-06T05:52:04.032Z,7.5
2018-12-06T05:53:05.591Z,7.5
2018-12-06T05:54:07.237Z,7.6
2018-12-06T05:55:08.797Z,7.6
2018-12-06T05:56:10.335Z,7.7
2018-12-06T05:57:11.418Z,7.7
2018-12-06T05:58:12.829Z,7.7
2018-12-06T05:59:14.208Z,7.6
2018-12-06T06:00:15.761Z,7.5
2018-12-06T06:01:17.159Z,7.4
2018-12-06T06:02:18.549Z,7.3
2018-12-06T06:03:20.099Z,7.2
2018-12-06T06:04:21.646Z,7.2
2018-12-06T06:05:23.175Z,7.2
2018-12-06T06:06:24.584Z,7.2
2018-12-06T06:07:25.697Z,7.2
2018-12-06T06:08:27.073Z,7.2
2018-12-06T06:09:28.675Z,7.2
2018-12-06T06:10:30.064Z,7.1
2018-12-06T06:11:31.607Z,7.1
2018-12-06T06:12:32.821Z,7.2
2018-12-06T06:13:34.404Z,7.2
2018-12-06T06:14:35.863Z,7.2
2018-12-06T06:15:37.613Z,7.2
2018-12-06T06:16:38.906Z,7.2
2018-12-06T06:17:40.529Z,7.2
2018-12-06T06:18:41.933Z,7.2
2018-12-06T06:19:43.309Z,7.2
2018-12-06T06:20:44.843Z,7.2
2018-12-06T06:21:46.072Z,7.2
2018-12-06T06:22:47.600Z,7.2
2018-12-06T06:23:49.159Z,7.2
2018-12-06T06:24:50.698Z,7.2
2018-12-06T06:25:52.350Z,7.2
2018-12-06T06:26:53.900Z,7.2
2018-12-06T06:27:55.275Z,7.2
2018-12-06T06:28:56.682Z,7.2
2018-12-06T06:29:57.908Z,7.2
2018-12-06T06:30:59.298Z,7.3
2018-12-06T06:32:00.937Z,7.3
2018-12-06T06:33:02.505Z,7.3
2018-12-06T06:34:04.054Z,7.3
2018-12-06T06:35:05.633Z,7.3
2018-12-06T06:36:07.251Z,7.4
2018-12-06T06:37:08.658Z,7.4
2018-12-06T06:38:10.197Z,7.5
2018-12-06T06:39:11.828Z,7.5
2018-12-06T06:40:13.206Z,7.6
2018-12-06T06:41:14.751Z,7.6
2018-12-06T06:42:15.973Z,7.7
2018-12-06T06:43:17.377Z,7.7
2018-12-06T06:44:18.765Z,7.8
2018-12-06T06:45:20.307Z,7.8
2018-12-06T06:46:21.717Z,7.8
2018-12-06T06:47:23.269Z,7.9
2018-12-06T06:48:24.687Z,7.9
2018-12-06T06:49:26.090Z,7.9
2018-12-06T06:50:27.661Z,7.9
2018-12-06T06:51:29.232Z,7.9
2018-12-06T06:52:30.775Z,7.9
2018-12-06T06:53:32.332Z,7.9
2018-12-06T06:54:33.973Z,7.9
2018-12-06T06:55:35.354Z,7.9
2018-12-06T06:56:36.577Z,7.9
2018-12-06T06:57:37.811Z,7.9
2018-12-06T06:58:39.210Z,7.9
2018-12-06T06:59:40.977Z,7.9
2018-12-06T07:00:42.551Z,7.9
2018-12-06T07:01:43.777Z,7.9
2018-12-06T07:02:45.159Z,7.9
2018-12-06T07:03:46.734Z,7.9
2018-12-06T07:04:48.418Z,7.9
2018-12-06T07:05:50.004Z,7.9
2018-12-06T07:06:51.561Z,7.9
2018-12-06T07:07:52.959Z,7.9
2018-12-06T07:08:54.372Z,7.9
2018-12-06T07:09:55.927Z,7.9
2018-12-06T07:10:57.314Z,7.9
2018-12-06T07:11:58.578Z,7.9
2018-12-06T07:12:59.966Z,7.8
2018-12-06T07:14:01.507Z,7.8
2018-12-06T07:15:02.914Z,7.9
2018-12-06T07:16:04.473Z,7.9
2018-12-06T07:17:05.896Z,7.9
2018-12-06T07:18:07.692Z,7.9
2018-12-06T07:19:09.231Z,7.2
2018-12-06T07:20:10.639Z,7.3
2018-12-06T07:21:12.179Z,7.3
2018-12-06T07:22:13.559Z,7.3
2018-12-06T07:23:15.108Z,7.4
2018-12-06T07:24:16.647Z,7.4
2018-12-06T07:25:18.038Z,7.4
2018-12-06T07:26:19.445Z,7.4
2018-12-06T07:27:21.118Z,7.4
2018-12-06T07:28:22.674Z,7.4
2018-12-06T07:29:24.251Z,7.4
2018-12-06T07:30:25.667Z,7.4
2018-12-06T07:31:26.910Z,7.4
2018-12-06T07:32:28.459Z,7.4
2018-12-06T07:33:29.860Z,7.3
2018-12-06T07:34:31.245Z,7.2
2018-12-06T07:35:33.590Z,7.2
2018-12-06T07:36:35.143Z,7.2
2018-12-06T07:37:36.397Z,7.2
2018-12-06T07:38:37.996Z,7.2
2018-12-06T07:39:39.378Z,7.2
2018-12-06T07:40:40.774Z,7.2
2018-12-06T07:41:42.447Z,7.2
2018-12-06T07:42:43.680Z,7.1
2018-12-06T07:43:45.080Z,7.1
2018-12-06T07:44:46.660Z,7.2
2018-12-06T07:45:48.151Z,7.1
2018-12-06T07:46:49.701Z,7.2
2018-12-06T07:47:51.094Z,7.2
2018-12-06T07:48:52.331Z,7.2
2018-12-06T07:49:53.719Z,7.2
2018-12-06T07:50:55.030Z,7.2
2018-12-06T07:51:56.577Z,7.2
2018-12-06T07:52:58.139Z,7.2
2018-12-06T07:53:59.373Z,7.2
2018-12-06T07:55:00.935Z,7.2
2018-12-06T07:56:02.308Z,7.2
2018-12-06T07:57:03.710Z,7.2
2018-12-06T07:58:05.268Z,7.2
2018-12-06T07:59:06.689Z,7.2
2018-12-06T08:00:08.082Z,7.2
2018-12-06T08:01:09.639Z,7.2
2018-12-06T08:02:10.893Z,7.2
2018-12-06T08:03:12.454Z,7.3
2018-12-06T08:04:13.870Z,7.3
2018-12-06T08:05:15.427Z,7.3
2018-12-06T08:06:16.823Z,7.3
2018-12-06T08:07:18.231Z,7.3
2018-12-06T08:08:19.773Z,7.3
2018-12-06T08:09:21.320Z,7.3
2018-12-06T08:10:22.867Z,7.3
2018-12-06T08:11:24.862Z,7.3
2018-12-06T08:12:26.429Z,7.3
2018-12-06T08:13:27.978Z,7.4
2018-12-06T08:14:29.217Z,7.4
2018-12-06T08:15:30.759Z,7.4
2018-12-06T08:16:32.141Z,7.5
2018-12-06T08:17:33.703Z,7.5
2018-12-06T08:18:35.100Z,7.6
2018-12-06T08:19:36.466Z,7.6
2018-12-06T08:20:38.030Z,7.6
2018-12-06T08:21:39.569Z,7.7
2018-12-06T08:22:41.118Z,7.7
2018-12-06T08:23:42.670Z,7.7
2018-12-06T08:24:44.212Z,7.8
2018-12-06T08:25:45.781Z,7.8
2018-12-06T08:26:47.030Z,7.9
2018-12-06T08:27:48.420Z,7.9
2018-12-06T08:28:49.967Z,7.9
2018-12-06T08:29:51.206Z,7.9
2018-12-06T08:30:52.802Z,7.9
2018-12-06T08:31:54.209Z,7.9
2018-12-06T08:32:55.616Z,7.9
2018-12-06T08:33:57.183Z,7.9
2018-12-06T08:34:58.744Z,7.9
2018-12-06T08:36:00.119Z,7.9
2018-12-06T08:37:01.709Z,7.9
2018-12-06T08:38:03.271Z,7.9
2018-12-06T08:39:04.706Z,7.9
2018-12-06T08:40:06.334Z,7.9
2018-12-06T08:41:07.906Z,7.9
2018-12-06T08:42:09.464Z,7.8
2018-12-06T08:43:11.014Z,7.8
2018-12-06T08:44:12.301Z,7.9
2018-12-06T08:45:13.818Z,7.9
2018-12-06T08:46:16.073Z,7.9
2018-12-06T08:47:17.626Z,7.9
2018-12-06T08:48:19.181Z,7.9
2018-12-06T08:49:20.718Z,7.9
2018-12-06T08:50:22.826Z,7.9
2018-12-06T08:51:24.094Z,7.9
2018-12-06T08:52:25.683Z,7.9
2018-12-06T08:53:27.067Z,7.9
2018-12-06T08:54:28.491Z,7.9
2018-12-06T08:55:30.037Z,7.9
2018-12-06T08:56:31.099Z,7.2
2018-12-06T08:57:32.331Z,7.3
2018-12-06T08:58:33.875Z,7.4
2018-12-06T08:59:35.454Z,7.4
2018-12-06T09:00:37.051Z,7.5
2018-12-06T09:01:38.473Z,7.6
2018-12-06T09:02:40.058Z,7.6
2018-12-06T09:03:41.619Z,7.7
2018-12-06T09:04:43.021Z,7.8
2018-12-06T09:05:44.266Z,7.8
2018-12-06T09:06:45.661Z,7.9
2018-12-06T09:07:47.260Z,7.9
2018-12-06T09:08:48.656Z,7.9
2018-12-06T09:09:50.229Z,7.9
2018-12-06T09:10:53.225Z,7.9
2018-12-06T09:11:54.766Z,7.9
2018-12-06T09:12:56.329Z,7.9
2018-12-06T09:13:57.561Z,7.9
2018-12-06T09:14:59.197Z,7.8
2018-12-06T09:16:00.590Z,7.8
2018-12-06T09:17:02.038Z,7.7
2018-12-06T09:18:03.421Z,7.6
2018-12-06T09:19:04.995Z,7.5
2018-12-06T09:20:06.535Z,7.4
2018-12-06T09:21:08.089Z,7.3
2018-12-06T09:22:09.560Z,7.2
2018-12-06T09:23:10.808Z,7.1
2018-12-06T09:24:12.203Z,7.2
2018-12-06T09:25:21.541Z,7.1
2018-12-06T09:26:23.138Z,7.2
2018-12-06T09:27:24.911Z,7.1
2018-12-06T09:28:26.350Z,7.1
2018-12-06T09:29:27.909Z,7.2
2018-12-06T09:30:29.469Z,7.2
2018-12-06T09:31:30.707Z,7.2
2018-12-06T09:32:32.263Z,7.2
2018-12-06T09:33:33.820Z,7.2
2018-12-06T09:34:35.199Z,7.2
2018-12-06T09:35:36.743Z,7.2
2018-12-06T09:36:38.139Z,7.2
2018-12-06T09:37:39.693Z,7.2
2018-12-06T09:38:41.245Z,7.2
2018-12-06T09:39:42.797Z,7.2
2018-12-06T09:40:44.171Z,7.3
2018-12-06T09:41:45.570Z,7.3
2018-12-06T09:42:47.011Z,7.3
2018-12-06T09:43:48.389Z,7.4
2018-12-06T09:44:49.936Z,7.4
2018-12-06T09:45:51.478Z,7.5
2018-12-06T09:46:53.025Z,7.5
2018-12-06T09:47:54.420Z,7.6
2018-12-06T09:48:55.807Z,7.6
2018-12-06T09:49:57.284Z,7.7
2018-12-06T09:50:59.413Z,7.8
2018-12-06T09:52:00.927Z,7.8
2018-12-06T09:53:02.478Z,7.8
2018-12-06T09:54:04.052Z,7.9
2018-12-06T09:55:05.442Z,7.9
2018-12-06T09:56:06.837Z,7.9
2018-12-06T09:57:08.370Z,7.9
2018-12-06T09:58:09.622Z,7.9
2018-12-06T09:59:11.013Z,7.9
2018-12-06T10:00:12.396Z,7.9
2018-12-06T10:01:13.813Z,7.9
2018-12-06T10:02:15.197Z,7.9
2018-12-06T10:03:16.598Z,7.9
2018-12-06T10:04:18.139Z,7.9
2018-12-06T10:05:20.077Z,7.9
2018-12-06T10:06:21.487Z,7.9
2018-12-06T10:07:22.898Z,7.9
2018-12-06T10:08:24.498Z,7.9
2018-12-06T10:09:25.928Z,7.9
2018-12-06T10:10:27.469Z,7.9
2018-12-06T10:11:28.710Z,7.9
2018-12-06T10:12:29.945Z,7.9
2018-12-06T10:13:31.336Z,7.9
2018-12-06T10:14:32.871Z,7.9
2018-12-06T10:15:34.429Z,7.9
2018-12-06T10:16:35.630Z,7.9
2018-12-06T10:17:37.018Z,7.9
2018-12-06T10:18:38.252Z,7.9
2018-12-06T10:19:39.880Z,7.9
2018-12-06T10:20:41.430Z,7.9
2018-12-06T10:21:42.833Z,7.9
2018-12-06T10:22:44.382Z,7.8
2018-12-06T10:23:45.944Z,7.8
2018-12-06T10:24:47.499Z,7.8
2018-12-06T10:25:49.036Z,7.8
2018-12-06T10:26:50.595Z,7.8
2018-12-06T10:27:51.984Z,7.8
2018-12-06T10:28:53.537Z,7.8
2018-12-06T10:29:54.940Z,7.9
2018-12-06T10:30:56.341Z,7.9
2018-12-06T10:31:57.903Z,7.8
2018-12-06T10:32:59.296Z,7.8
2018-12-06T10:34:00.683Z,7.8
2018-12-06T10:35:02.089Z,7.8
2018-12-06T10:36:03.646Z,7.8
2018-12-06T10:37:04.887Z,7.8
2018-12-06T10:38:06.422Z,7.8
2018-12-06T10:39:07.973Z,7.8
2018-12-06T10:40:09.520Z,7.8
2018-12-06T10:41:10.750Z,7.8
2018-12-06T10:42:11.999Z,7.8
2018-12-06T10:43:13.092Z,7.8
2018-12-06T10:44:14.178Z,7.8
2018-12-06T10:45:15.550Z,7.8
2018-12-06T10:46:17.093Z,7.8
2018-12-06T10:47:18.364Z,7.8
2018-12-06T10:48:19.947Z,7.8
2018-12-06T10:49:21.351Z,7.8
2018-12-06T10:50:22.894Z,7.8
2018-12-06T10:51:24.282Z,7.8
2018-12-06T10:52:25.825Z,7.8
2018-12-06T10:53:27.382Z,7.7
2018-12-06T10:54:28.771Z,7.6
2018-12-06T10:55:30.175Z,7.5
2018-12-06T10:56:31.568Z,7.4
2018-12-06T10:57:33.119Z,7.2
2018-12-06T10:58:34.498Z,7.2
2018-12-06T10:59:35.919Z,7.2
2018-12-06T11:00:37.481Z,7.2
2018-12-06T11:01:39.039Z,7.2
2018-12-06T11:02:40.581Z,7.2
2018-12-06T11:03:42.138Z,7.2
2018-12-06T11:04:43.687Z,7.2
2018-12-06T11:05:45.243Z,7.2
2018-12-06T11:06:46.655Z,7.2
2018-12-06T11:07:48.249Z,7.2
2018-12-06T11:08:49.635Z,7.2
2018-12-06T11:09:51.199Z,7.1
2018-12-06T11:10:52.763Z,7.2
2018-12-06T11:11:54.700Z,7.2
2018-12-06T11:12:56.249Z,7.2
2018-12-06T11:13:57.791Z,7.2
2018-12-06T11:14:59.331Z,7.2
2018-12-06T11:16:00.709Z,7.2
2018-12-06T11:17:02.108Z,7.2
2018-12-06T11:18:03.653Z,7.2
2018-12-06T11:19:04.887Z,7.2
2018-12-06T11:20:06.120Z,7.2
2018-12-06T11:21:07.359Z,7.2
2018-12-06T11:22:08.921Z,7.2
2018-12-06T11:23:10.005Z,7.3
2018-12-06T11:24:11.390Z,7.3
2018-12-06T11:25:12.620Z,7.3
2018-12-06T11:26:14.169Z,7.3
2018-12-06T11:27:15.716Z,7.3
2018-12-06T11:28:17.274Z,7.3
2018-12-06T11:29:18.815Z,7.4
2018-12-06T11:30:20.370Z,7.4
2018-12-06T11:31:21.791Z,7.4
2018-12-06T11:32:23.214Z,7.4
2018-12-06T11:33:24.745Z,7.4
2018-12-06T11:34:26.281Z,7.5
2018-12-06T11:35:27.695Z,7.5
2018-12-06T11:36:29.083Z,7.6
2018-12-06T11:37:30.629Z,7.7
2018-12-06T11:38:32.001Z,7.7
2018-12-06T11:39:33.384Z,7.8
2018-12-06T11:40:34.781Z,7.8
2018-12-06T11:41:44.279Z,7.9
2018-12-06T11:42:45.663Z,7.9
2018-12-06T11:43:47.252Z,7.9
2018-12-06T11:44:48.653Z,7.9
2018-12-06T11:45:50.191Z,7.9
2018-12-06T11:46:51.598Z,7.9
2018-12-06T11:47:53.143Z,7.9
2018-12-06T11:48:54.701Z,7.9
2018-12-06T11:49:55.952Z,7.9
2018-12-06T11:50:57.337Z,7.9
2018-12-06T11:51:58.903Z,7.9
2018-12-06T11:53:00.469Z,7.9
2018-12-06T11:54:02.009Z,7.9
2018-12-06T11:55:03.403Z,7.9
2018-12-06T11:56:04.780Z,7.9
2018-12-06T11:57:06.347Z,7.9
2018-12-06T11:58:12.954Z,7.9
2018-12-06T11:59:14.425Z,7.9
2018-12-06T12:00:15.844Z,7.9
2018-12-06T12:01:17.379Z,7.9
2018-12-06T12:02:18.763Z,7.9
2018-12-06T12:03:20.352Z,7.9
2018-12-06T12:04:21.752Z,7.9
2018-12-06T12:05:23.292Z,7.9
2018-12-06T12:06:24.847Z,7.9
2018-12-06T12:07:26.385Z,7.9
2018-12-06T12:08:27.938Z,7.9
2018-12-06T12:09:29.181Z,7.9
2018-12-06T12:10:30.558Z,7.9
2018-12-06T12:11:31.968Z,7.9
2018-12-06T12:12:33.352Z,7.9
2018-12-06T12:13:34.892Z,7.9
2018-12-06T12:14:36.460Z,7.9
2018-12-06T12:15:37.943Z,7.9
2018-12-06T12:16:39.335Z,7.9
2018-12-06T12:17:40.898Z,7.9
2018-12-06T12:18:42.440Z,7.9
2018-12-06T12:19:43.663Z,7.9
2018-12-06T12:20:45.226Z,7.8
2018-12-06T12:21:46.764Z,7.8
2018-12-06T12:22:48.160Z,7.8
2018-12-06T12:23:49.713Z,7.7
2018-12-06T12:24:51.115Z,7.7
2018-12-06T12:25:52.648Z,7.6
2018-12-06T12:26:54.059Z,7.5
2018-12-06T12:27:55.600Z,7.4
2018-12-06T12:28:57.070Z,7.3
2018-12-06T12:29:58.678Z,7.2
2018-12-06T12:31:00.345Z,7.2
2018-12-06T12:32:01.901Z,7.2
2018-12-06T12:33:03.293Z,7.2
2018-12-06T12:34:04.534Z,7.2
2018-12-06T12:35:05.774Z,7.2
2018-12-06T12:36:07.330Z,7.2
2018-12-06T12:37:08.583Z,7.2
2018-12-06T12:38:10.140Z,7.1
2018-12-06T12:39:11.546Z,7.2
2018-12-06T12:40:12.931Z,7.2
2018-12-06T12:41:14.462Z,7.1
2018-12-06T12:42:15.855Z,7.2
2018-12-06T12:43:17.384Z,7.2
2018-12-06T12:44:18.491Z,7.2
2018-12-06T12:45:20.066Z,7.2
2018-12-06T12:46:21.459Z,7.2
2018-12-06T12:47:23.026Z,7.2
2018-12-06T12:48:24.565Z,7.2
2018-12-06T12:49:26.118Z,7.2
2018-12-06T12:50:27.563Z,7.2
2018-12-06T12:51:28.815Z,7.2
2018-12-06T12:52:30.369Z,7.2
2018-12-06T12:53:31.785Z,7.3
2018-12-06T12:54:33.180Z,7.3
2018-12-06T12:55:34.584Z,7.3
2018-12-06T12:56:36.149Z,7.4
2018-12-06T12:57:37.688Z,7.5
2018-12-06T12:58:39.077Z,7.6
2018-12-06T12:59:40.460Z,7.6
2018-12-06T13:00:41.860Z,7.7
2018-12-06T13:01:43.420Z,7.8
2018-12-06T13:02:44.976Z,7.8
2018-12-06T13:03:46.375Z,7.8
2018-12-06T13:04:47.898Z,7.9
2018-12-06T13:05:49.280Z,7.9
2018-12-06T13:06:50.861Z,7.9
2018-12-06T13:07:52.411Z,7.9
2018-12-06T13:08:53.970Z,7.9
2018-12-06T13:10:10.190Z,7.9
2018-12-06T13:11:11.418Z,7.9
2018-12-06T13:12:12.993Z,7.9
2018-12-06T13:13:14.391Z,7.9
2018-12-06T13:14:15.931Z,7.9
2018-12-06T13:15:17.517Z,7.9
2018-12-06T13:16:19.091Z,7.9
2018-12-06T13:17:20.659Z,7.9
2018-12-06T13:18:23.781Z,7.9
2018-12-06T13:19:25.322Z,7.9
2018-12-06T13:20:26.868Z,7.9
2018-12-06T13:21:28.263Z,7.9
2018-12-06T13:22:29.800Z,7.9
2018-12-06T13:23:31.365Z,7.9
2018-12-06T13:24:32.904Z,7.9
2018-12-06T13:25:34.466Z,7.9
2018-12-06T13:26:35.862Z,7.9
2018-12-06T13:27:37.419Z,7.9
2018-12-06T13:28:38.800Z,7.9
2018-12-06T13:29:40.352Z,7.9
2018-12-06T13:30:41.625Z,7.9
2018-12-06T13:31:44.869Z,7.9
2018-12-06T13:32:46.154Z,7.9
2018-12-06T13:33:47.712Z,7.9
2018-12-06T13:34:49.585Z,7.8
2018-12-06T13:35:51.141Z,7.9
2018-12-06T13:36:52.712Z,7.9
2018-12-06T13:37:53.944Z,7.8
2018-12-06T13:38:55.348Z,7.9
2018-12-06T13:39:56.590Z,7.9
2018-12-06T13:40:58.146Z,7.7
2018-12-06T13:41:59.378Z,7.9
2018-12-06T13:43:00.991Z,7.9
2018-12-06T13:44:02.549Z,7.9
2018-12-06T13:45:04.179Z,7.9
2018-12-06T13:46:06.085Z,7.9
2018-12-06T13:47:07.599Z,7.9
2018-12-06T13:48:09.149Z,7.9
2018-12-06T13:49:10.385Z,7.9
2018-12-06T13:50:11.950Z,7.9
2018-12-06T13:51:13.504Z,7.9
2018-12-06T13:52:15.046Z,7.9
2018-12-06T13:53:16.586Z,7.9
2018-12-06T13:54:17.828Z,7.2
2018-12-06T13:55:19.280Z,7.4
2018-12-06T13:56:20.834Z,7.6
2018-12-06T13:57:22.245Z,7.7
2018-12-06T13:58:23.811Z,7.8
2018-12-06T13:59:25.210Z,7.9
2018-12-06T14:00:27.508Z,7.9
2018-12-06T14:01:29.668Z,7.9
2018-12-06T14:02:31.057Z,7.8
2018-12-06T14:03:32.689Z,7.8
2018-12-06T14:04:34.249Z,7.7
2018-12-06T14:05:35.823Z,7.7
2018-12-06T14:06:37.404Z,7.5
2018-12-06T14:07:38.974Z,7.4